sensor_id;sensor_type;location;lat;lon;timestamp;P1;durP1;ratioP1;P2;durP2;ratioP2
49584;SDS011;35491;49.142;9.210;2022-12-10T00:00:46;21.08;;;15.30;;
49584;SDS011;35491;49.142;9.210;2022-12-10T00:01:48;21.40;;;15.35;;
49584;SDS011;35491;49.142;9.210;2022-12-10T00:02:53;21.67;;;15.65;;
49584;SDS011;35491;49.142;9.210;2022-12-10T00:03:56;20.98;;;14.93;;
49584;SDS011;35491;49.142;9.210;2022-12-10T00:05:01;23.17;;;16.13;;
49584;SDS011;35491;49.142;9.210;2022-12-10T00:06:03;21.38;;;15.20;;
49584;SDS011;35491;49.142;9.210;2022-12-10T00:07:08;21.80;;;15.20;;
49584;SDS011;35491;49.142;9.210;2022-12-10T00:08:09;20.08;;;15.00;;
49584;SDS011;35491;49.142;9.210;2022-12-10T00:09:16;23.08;;;16.75;;
49584;SDS011;35491;49.142;9.210;2022-12-10T00:10:21;24.00;;;16.58;;
49584;SDS011;35491;49.142;9.210;2022-12-10T00:11:25;23.92;;;16.65;;
49584;SDS011;35491;49.142;9.210;2022-12-10T00:12:28;22.70;;;16.65;;
49584;SDS011;35491;49.142;9.210;2022-12-10T00:13:32;20.90;;;15.68;;
49584;SDS011;35491;49.142;9.210;2022-12-10T00:14:36;22.52;;;17.45;;
49584;SDS011;35491;49.142;9.210;2022-12-10T00:15:40;23.92;;;16.77;;
49584;SDS011;35491;49.142;9.210;2022-12-10T00:16:41;23.42;;;17.13;;
49584;SDS011;35491;49.142;9.210;2022-12-10T00:17:46;22.15;;;15.77;;
49584;SDS011;35491;49.142;9.210;2022-12-10T00:18:47;23.65;;;16.85;;
49584;SDS011;35491;49.142;9.210;2022-12-10T00:19:52;22.08;;;16.15;;
49584;SDS011;35491;49.142;9.210;2022-12-10T00:20:53;23.30;;;15.90;;
49584;SDS011;35491;49.142;9.210;2022-12-10T00:21:58;21.50;;;16.10;;
49584;SDS011;35491;49.142;9.210;2022-12-10T00:23:02;21.77;;;16.67;;
49584;SDS011;35491;49.142;9.210;2022-12-10T00:24:04;22.65;;;16.33;;
49584;SDS011;35491;49.142;9.210;2022-12-10T00:25:09;24.25;;;16.35;;
49584;SDS011;35491;49.142;9.210;2022-12-10T00:26:15;24.00;;;16.83;;
49584;SDS011;35491;49.142;9.210;2022-12-10T00:27:20;23.85;;;17.23;;
49584;SDS011;35491;49.142;9.210;2022-12-10T00:28:21;23.00;;;17.23;;
49584;SDS011;35491;49.142;9.210;2022-12-10T00:29:25;20.60;;;16.10;;
49584;SDS011;35491;49.142;9.210;2022-12-10T00:30:30;23.23;;;17.23;;
49584;SDS011;35491;49.142;9.210;2022-12-10T00:31:34;24.02;;;16.73;;
49584;SDS011;35491;49.142;9.210;2022-12-10T00:32:39;22.83;;;16.48;;
49584;SDS011;35491;49.142;9.210;2022-12-10T00:33:41;22.23;;;16.48;;
49584;SDS011;35491;49.142;9.210;2022-12-10T00:34:46;28.05;;;17.77;;
49584;SDS011;35491;49.142;9.210;2022-12-10T00:35:47;22.40;;;16.90;;
49584;SDS011;35491;49.142;9.210;2022-12-10T00:36:51;25.27;;;17.50;;
49584;SDS011;35491;49.142;9.210;2022-12-10T00:37:53;25.92;;;17.92;;
49584;SDS011;35491;49.142;9.210;2022-12-10T00:38:57;23.35;;;16.85;;
49584;SDS011;35491;49.142;9.210;2022-12-10T00:39:59;24.25;;;16.42;;
49584;SDS011;35491;49.142;9.210;2022-12-10T00:41:03;21.08;;;16.38;;
49584;SDS011;35491;49.142;9.210;2022-12-10T00:42:07;22.33;;;15.13;;
49584;SDS011;35491;49.142;9.210;2022-12-10T00:43:12;22.70;;;15.65;;
49584;SDS011;35491;49.142;9.210;2022-12-10T00:44:13;19.60;;;14.55;;
49584;SDS011;35491;49.142;9.210;2022-12-10T00:45:19;20.85;;;14.88;;
49584;SDS011;35491;49.142;9.210;2022-12-10T00:46:20;21.27;;;15.07;;
49584;SDS011;35491;49.142;9.210;2022-12-10T00:47:25;19.45;;;14.10;;
49584;SDS011;35491;49.142;9.210;2022-12-10T00:48:29;21.48;;;15.50;;
49584;SDS011;35491;49.142;9.210;2022-12-10T00:49:30;20.20;;;14.65;;
49584;SDS011;35491;49.142;9.210;2022-12-10T00:50:36;20.25;;;14.77;;
49584;SDS011;35491;49.142;9.210;2022-12-10T00:51:37;19.40;;;13.85;;
49584;SDS011;35491;49.142;9.210;2022-12-10T00:52:42;19.70;;;13.57;;
49584;SDS011;35491;49.142;9.210;2022-12-10T00:53:43;19.42;;;13.50;;
49584;SDS011;35491;49.142;9.210;2022-12-10T00:54:49;22.05;;;16.25;;
49584;SDS011;35491;49.142;9.210;2022-12-10T00:55:51;20.05;;;14.77;;
49584;SDS011;35491;49.142;9.210;2022-12-10T00:56:56;19.35;;;14.80;;
49584;SDS011;35491;49.142;9.210;2022-12-10T00:58:00;21.92;;;16.02;;
49584;SDS011;35491;49.142;9.210;2022-12-10T00:59:04;22.13;;;15.98;;
49584;SDS011;35491;49.142;9.210;2022-12-10T01:00:06;25.33;;;18.35;;
49584;SDS011;35491;49.142;9.210;2022-12-10T01:01:13;24.02;;;16.50;;
49584;SDS011;35491;49.142;9.210;2022-12-10T01:02:18;23.45;;;17.58;;
49584;SDS011;35491;49.142;9.210;2022-12-10T01:03:23;22.63;;;17.25;;
49584;SDS011;35491;49.142;9.210;2022-12-10T01:04:24;23.13;;;17.20;;
49584;SDS011;35491;49.142;9.210;2022-12-10T01:05:28;21.48;;;16.40;;
49584;SDS011;35491;49.142;9.210;2022-12-10T01:06:30;20.80;;;15.35;;
49584;SDS011;35491;49.142;9.210;2022-12-10T01:07:36;20.95;;;15.43;;
49584;SDS011;35491;49.142;9.210;2022-12-10T01:08:38;23.67;;;17.33;;
49584;SDS011;35491;49.142;9.210;2022-12-10T01:09:42;23.70;;;17.13;;
49584;SDS011;35491;49.142;9.210;2022-12-10T01:10:52;22.48;;;16.42;;
49584;SDS011;35491;49.142;9.210;2022-12-10T01:11:54;22.45;;;16.90;;
49584;SDS011;35491;49.142;9.210;2022-12-10T01:13:01;24.02;;;17.30;;
49584;SDS011;35491;49.142;9.210;2022-12-10T01:14:03;25.00;;;17.67;;
49584;SDS011;35491;49.142;9.210;2022-12-10T01:15:08;25.27;;;18.50;;
49584;SDS011;35491;49.142;9.210;2022-12-10T01:16:11;24.88;;;17.45;;
49584;SDS011;35491;49.142;9.210;2022-12-10T01:17:16;21.27;;;15.77;;
49584;SDS011;35491;49.142;9.210;2022-12-10T01:18:22;25.35;;;17.60;;
49584;SDS011;35491;49.142;9.210;2022-12-10T01:19:23;21.58;;;15.48;;
49584;SDS011;35491;49.142;9.210;2022-12-10T01:20:28;21.27;;;15.57;;
49584;SDS011;35491;49.142;9.210;2022-12-10T01:21:29;24.00;;;16.88;;
49584;SDS011;35491;49.142;9.210;2022-12-10T01:22:33;26.33;;;17.45;;
49584;SDS011;35491;49.142;9.210;2022-12-10T01:23:35;21.15;;;15.13;;
49584;SDS011;35491;49.142;9.210;2022-12-10T01:24:41;21.45;;;15.85;;
49584;SDS011;35491;49.142;9.210;2022-12-10T01:25:43;23.65;;;17.50;;
49584;SDS011;35491;49.142;9.210;2022-12-10T01:26:47;22.23;;;15.63;;
49584;SDS011;35491;49.142;9.210;2022-12-10T01:27:52;21.30;;;16.08;;
49584;SDS011;35491;49.142;9.210;2022-12-10T01:28:56;23.95;;;17.65;;
49584;SDS011;35491;49.142;9.210;2022-12-10T01:30:00;20.90;;;15.70;;
49584;SDS011;35491;49.142;9.210;2022-12-10T01:31:03;19.80;;;14.70;;
49584;SDS011;35491;49.142;9.210;2022-12-10T01:32:09;22.35;;;15.90;;
49584;SDS011;35491;49.142;9.210;2022-12-10T01:33:10;20.67;;;14.80;;
49584;SDS011;35491;49.142;9.210;2022-12-10T01:34:14;19.63;;;14.15;;
49584;SDS011;35491;49.142;9.210;2022-12-10T01:35:16;19.15;;;13.73;;
49584;SDS011;35491;49.142;9.210;2022-12-10T01:36:21;21.13;;;15.55;;
49584;SDS011;35491;49.142;9.210;2022-12-10T01:37:24;24.42;;;16.23;;
49584;SDS011;35491;49.142;9.210;2022-12-10T01:38:29;23.05;;;16.48;;
49584;SDS011;35491;49.142;9.210;2022-12-10T01:39:30;23.67;;;16.55;;
49584;SDS011;35491;49.142;9.210;2022-12-10T01:40:36;20.60;;;15.88;;
49584;SDS011;35491;49.142;9.210;2022-12-10T01:41:39;19.65;;;14.30;;
49584;SDS011;35491;49.142;9.210;2022-12-10T01:42:45;21.65;;;15.70;;
49584;SDS011;35491;49.142;9.210;2022-12-10T01:43:48;25.20;;;16.70;;
49584;SDS011;35491;49.142;9.210;2022-12-10T01:45:04;22.83;;;15.50;;
49584;SDS011;35491;49.142;9.210;2022-12-10T01:46:09;22.50;;;15.77;;
49584;SDS011;35491;49.142;9.210;2022-12-10T01:47:13;22.70;;;15.55;;
49584;SDS011;35491;49.142;9.210;2022-12-10T01:48:14;22.33;;;14.75;;
49584;SDS011;35491;49.142;9.210;2022-12-10T01:49:19;19.98;;;15.13;;
49584;SDS011;35491;49.142;9.210;2022-12-10T01:50:22;19.58;;;13.75;;
49584;SDS011;35491;49.142;9.210;2022-12-10T01:51:28;20.88;;;15.60;;
49584;SDS011;35491;49.142;9.210;2022-12-10T01:52:31;19.95;;;14.95;;
49584;SDS011;35491;49.142;9.210;2022-12-10T01:53:36;20.90;;;15.23;;
49584;SDS011;35491;49.142;9.210;2022-12-10T01:54:38;20.25;;;15.70;;
49584;SDS011;35491;49.142;9.210;2022-12-10T01:55:46;23.77;;;17.83;;
49584;SDS011;35491;49.142;9.210;2022-12-10T01:56:50;21.92;;;15.40;;
49584;SDS011;35491;49.142;9.210;2022-12-10T01:58:01;21.10;;;15.88;;
49584;SDS011;35491;49.142;9.210;2022-12-10T01:59:03;20.23;;;15.32;;
49584;SDS011;35491;49.142;9.210;2022-12-10T02:00:12;19.58;;;14.02;;
49584;SDS011;35491;49.142;9.210;2022-12-10T02:01:14;22.77;;;16.98;;
49584;SDS011;35491;49.142;9.210;2022-12-10T02:02:27;21.50;;;15.23;;
49584;SDS011;35491;49.142;9.210;2022-12-10T02:03:37;19.50;;;14.82;;
49584;SDS011;35491;49.142;9.210;2022-12-10T02:04:53;21.88;;;14.68;;
49584;SDS011;35491;49.142;9.210;2022-12-10T02:06:06;19.50;;;14.30;;
49584;SDS011;35491;49.142;9.210;2022-12-10T02:07:19;19.95;;;15.43;;
49584;SDS011;35491;49.142;9.210;2022-12-10T02:08:25;23.00;;;15.95;;
49584;SDS011;35491;49.142;9.210;2022-12-10T02:09:36;22.23;;;15.70;;
49584;SDS011;35491;49.142;9.210;2022-12-10T02:10:47;23.27;;;15.85;;
49584;SDS011;35491;49.142;9.210;2022-12-10T02:12:03;24.65;;;17.88;;
49584;SDS011;35491;49.142;9.210;2022-12-10T02:13:14;25.50;;;17.25;;
49584;SDS011;35491;49.142;9.210;2022-12-10T02:15:32;21.30;;;14.77;;
49584;SDS011;35491;49.142;9.210;2022-12-10T02:16:41;24.33;;;16.90;;
49584;SDS011;35491;49.142;9.210;2022-12-10T02:17:51;25.15;;;18.17;;
49584;SDS011;35491;49.142;9.210;2022-12-10T02:18:58;26.63;;;18.88;;
49584;SDS011;35491;49.142;9.210;2022-12-10T02:20:12;24.58;;;17.80;;
49584;SDS011;35491;49.142;9.210;2022-12-10T02:21:19;24.52;;;18.00;;
49584;SDS011;35491;49.142;9.210;2022-12-10T02:22:28;29.83;;;19.95;;
49584;SDS011;35491;49.142;9.210;2022-12-10T02:23:33;25.98;;;19.42;;
49584;SDS011;35491;49.142;9.210;2022-12-10T02:24:40;25.48;;;18.80;;
49584;SDS011;35491;49.142;9.210;2022-12-10T02:25:46;25.13;;;17.45;;
49584;SDS011;35491;49.142;9.210;2022-12-10T02:26:56;25.75;;;19.00;;
49584;SDS011;35491;49.142;9.210;2022-12-10T02:28:05;23.75;;;16.58;;
49584;SDS011;35491;49.142;9.210;2022-12-10T02:29:19;25.30;;;18.15;;
49584;SDS011;35491;49.142;9.210;2022-12-10T02:30:23;24.38;;;16.95;;
49584;SDS011;35491;49.142;9.210;2022-12-10T02:31:28;25.45;;;18.23;;
49584;SDS011;35491;49.142;9.210;2022-12-10T02:32:33;23.58;;;17.23;;
49584;SDS011;35491;49.142;9.210;2022-12-10T02:33:42;28.25;;;18.13;;
49584;SDS011;35491;49.142;9.210;2022-12-10T02:34:48;26.95;;;18.73;;
49584;SDS011;35491;49.142;9.210;2022-12-10T02:35:55;23.88;;;17.35;;
49584;SDS011;35491;49.142;9.210;2022-12-10T02:37:00;23.58;;;17.63;;
49584;SDS011;35491;49.142;9.210;2022-12-10T02:38:09;21.35;;;16.67;;
49584;SDS011;35491;49.142;9.210;2022-12-10T02:39:14;22.83;;;16.70;;
49584;SDS011;35491;49.142;9.210;2022-12-10T02:40:23;20.10;;;14.57;;
49584;SDS011;35491;49.142;9.210;2022-12-10T02:41:32;25.25;;;18.25;;
49584;SDS011;35491;49.142;9.210;2022-12-10T02:42:38;23.08;;;16.52;;
49584;SDS011;35491;49.142;9.210;2022-12-10T02:43:42;22.52;;;16.88;;
49584;SDS011;35491;49.142;9.210;2022-12-10T02:44:51;24.70;;;17.88;;
49584;SDS011;35491;49.142;9.210;2022-12-10T02:45:55;24.75;;;17.33;;
49584;SDS011;35491;49.142;9.210;2022-12-10T02:47:00;23.92;;;16.88;;
49584;SDS011;35491;49.142;9.210;2022-12-10T02:48:03;21.23;;;17.08;;
49584;SDS011;35491;49.142;9.210;2022-12-10T19:09:04;23.40;;;17.48;;
49584;SDS011;35491;49.142;9.210;2022-12-10T19:10:15;22.98;;;16.65;;
49584;SDS011;35491;49.142;9.210;2022-12-10T19:11:22;24.33;;;17.00;;
49584;SDS011;35491;49.142;9.210;2022-12-10T19:12:27;24.02;;;17.42;;
49584;SDS011;35491;49.142;9.210;2022-12-10T19:13:28;21.17;;;15.32;;
49584;SDS011;35491;49.142;9.210;2022-12-10T19:14:32;23.15;;;17.58;;
49584;SDS011;35491;49.142;9.210;2022-12-10T19:15:41;24.48;;;17.17;;
49584;SDS011;35491;49.142;9.210;2022-12-10T19:16:48;25.10;;;17.15;;
49584;SDS011;35491;49.142;9.210;2022-12-10T19:17:50;25.30;;;17.73;;
49584;SDS011;35491;49.142;9.210;2022-12-10T19:18:54;27.70;;;17.92;;
49584;SDS011;35491;49.142;9.210;2022-12-10T19:20:01;26.45;;;18.95;;
49584;SDS011;35491;49.142;9.210;2022-12-10T19:21:06;27.65;;;18.80;;
49584;SDS011;35491;49.142;9.210;2022-12-10T19:22:10;28.75;;;19.30;;
49584;SDS011;35491;49.142;9.210;2022-12-10T19:23:17;25.83;;;18.63;;
49584;SDS011;35491;49.142;9.210;2022-12-10T19:24:18;26.48;;;18.50;;
49584;SDS011;35491;49.142;9.210;2022-12-10T19:25:22;25.35;;;18.58;;
49584;SDS011;35491;49.142;9.210;2022-12-10T19:26:25;26.40;;;17.90;;
49584;SDS011;35491;49.142;9.210;2022-12-10T19:27:32;26.83;;;18.85;;
49584;SDS011;35491;49.142;9.210;2022-12-10T19:28:38;25.95;;;17.75;;
49584;SDS011;35491;49.142;9.210;2022-12-10T19:29:42;30.05;;;19.88;;
49584;SDS011;35491;49.142;9.210;2022-12-10T19:30:47;27.55;;;19.83;;
49584;SDS011;35491;49.142;9.210;2022-12-10T19:31:52;29.23;;;20.92;;
49584;SDS011;35491;49.142;9.210;2022-12-10T19:32:54;25.98;;;18.08;;
49584;SDS011;35491;49.142;9.210;2022-12-10T19:33:58;26.02;;;17.98;;
49584;SDS011;35491;49.142;9.210;2022-12-10T19:35:00;23.55;;;16.67;;
49584;SDS011;35491;49.142;9.210;2022-12-10T19:36:07;24.15;;;15.75;;
49584;SDS011;35491;49.142;9.210;2022-12-10T19:37:18;25.45;;;17.90;;
49584;SDS011;35491;49.142;9.210;2022-12-10T19:39:29;24.48;;;17.17;;
49584;SDS011;35491;49.142;9.210;2022-12-10T19:40:35;23.85;;;16.08;;
49584;SDS011;35491;49.142;9.210;2022-12-10T19:41:40;27.05;;;18.05;;
49584;SDS011;35491;49.142;9.210;2022-12-10T19:42:42;25.73;;;18.10;;
49584;SDS011;35491;49.142;9.210;2022-12-10T19:43:46;25.00;;;17.75;;
49584;SDS011;35491;49.142;9.210;2022-12-10T19:44:51;26.77;;;17.58;;
49584;SDS011;35491;49.142;9.210;2022-12-10T19:45:52;25.73;;;18.95;;
49584;SDS011;35491;49.142;9.210;2022-12-10T19:46:58;26.42;;;19.13;;
49584;SDS011;35491;49.142;9.210;2022-12-10T19:48:09;25.98;;;17.85;;
49584;SDS011;35491;49.142;9.210;2022-12-10T19:49:14;31.30;;;18.88;;
49584;SDS011;35491;49.142;9.210;2022-12-10T19:50:22;24.90;;;18.13;;
49584;SDS011;35491;49.142;9.210;2022-12-10T19:51:25;28.33;;;19.95;;
49584;SDS011;35491;49.142;9.210;2022-12-10T19:52:30;27.58;;;19.05;;
49584;SDS011;35491;49.142;9.210;2022-12-10T19:53:31;27.48;;;19.80;;
49584;SDS011;35491;49.142;9.210;2022-12-10T19:54:38;29.67;;;19.73;;
49584;SDS011;35491;49.142;9.210;2022-12-10T19:55:42;26.52;;;19.35;;
49584;SDS011;35491;49.142;9.210;2022-12-10T19:56:47;29.05;;;18.42;;
49584;SDS011;35491;49.142;9.210;2022-12-10T19:57:51;26.80;;;18.55;;
49584;SDS011;35491;49.142;9.210;2022-12-10T19:58:56;25.25;;;18.83;;
49584;SDS011;35491;49.142;9.210;2022-12-10T19:59:59;26.75;;;19.55;;
49584;SDS011;35491;49.142;9.210;2022-12-10T20:01:03;25.08;;;17.48;;
49584;SDS011;35491;49.142;9.210;2022-12-10T20:02:07;25.30;;;17.25;;
49584;SDS011;35491;49.142;9.210;2022-12-10T20:03:12;25.40;;;18.13;;
49584;SDS011;35491;49.142;9.210;2022-12-10T20:04:17;25.70;;;18.50;;
49584;SDS011;35491;49.142;9.210;2022-12-10T20:05:22;26.40;;;18.70;;
49584;SDS011;35491;49.142;9.210;2022-12-10T20:06:27;27.63;;;18.90;;
49584;SDS011;35491;49.142;9.210;2022-12-10T20:07:31;27.95;;;19.48;;
49584;SDS011;35491;49.142;9.210;2022-12-10T20:08:35;23.77;;;17.55;;
49584;SDS011;35491;49.142;9.210;2022-12-10T20:09:39;25.02;;;17.77;;
49584;SDS011;35491;49.142;9.210;2022-12-10T20:10:45;26.30;;;18.73;;
49584;SDS011;35491;49.142;9.210;2022-12-10T20:11:51;27.55;;;19.05;;
49584;SDS011;35491;49.142;9.210;2022-12-10T20:12:53;29.08;;;20.60;;
49584;SDS011;35491;49.142;9.210;2022-12-10T20:13:57;26.27;;;18.20;;
49584;SDS011;35491;49.142;9.210;2022-12-10T20:14:58;27.27;;;19.33;;
49584;SDS011;35491;49.142;9.210;2022-12-10T20:16:03;26.25;;;18.75;;
49584;SDS011;35491;49.142;9.210;2022-12-10T20:17:07;28.95;;;19.25;;
49584;SDS011;35491;49.142;9.210;2022-12-10T20:18:16;27.90;;;19.58;;
49584;SDS011;35491;49.142;9.210;2022-12-10T20:19:21;28.40;;;19.48;;
49584;SDS011;35491;49.142;9.210;2022-12-10T20:20:26;29.00;;;20.90;;
49584;SDS011;35491;49.142;9.210;2022-12-10T20:21:29;27.30;;;20.10;;
49584;SDS011;35491;49.142;9.210;2022-12-10T20:22:33;27.50;;;18.95;;
49584;SDS011;35491;49.142;9.210;2022-12-10T20:23:38;27.67;;;19.17;;
49584;SDS011;35491;49.142;9.210;2022-12-10T20:24:42;28.08;;;19.88;;
49584;SDS011;35491;49.142;9.210;2022-12-10T20:25:47;27.50;;;18.75;;
49584;SDS011;35491;49.142;9.210;2022-12-10T20:26:52;27.42;;;19.25;;
49584;SDS011;35491;49.142;9.210;2022-12-10T20:27:54;27.38;;;19.60;;
49584;SDS011;35491;49.142;9.210;2022-12-10T20:28:59;28.95;;;19.65;;
49584;SDS011;35491;49.142;9.210;2022-12-10T20:30:04;26.45;;;18.42;;
49584;SDS011;35491;49.142;9.210;2022-12-10T20:31:11;27.02;;;19.65;;
49584;SDS011;35491;49.142;9.210;2022-12-10T20:32:16;28.48;;;18.90;;
49584;SDS011;35491;49.142;9.210;2022-12-10T20:33:20;26.88;;;19.23;;
49584;SDS011;35491;49.142;9.210;2022-12-10T20:34:24;28.40;;;19.50;;
49584;SDS011;35491;49.142;9.210;2022-12-10T20:35:29;28.05;;;19.38;;
49584;SDS011;35491;49.142;9.210;2022-12-10T20:36:31;25.20;;;18.25;;
49584;SDS011;35491;49.142;9.210;2022-12-10T20:37:36;27.98;;;19.05;;
49584;SDS011;35491;49.142;9.210;2022-12-10T20:38:37;27.50;;;19.80;;
49584;SDS011;35491;49.142;9.210;2022-12-10T20:39:44;26.33;;;19.23;;
49584;SDS011;35491;49.142;9.210;2022-12-10T20:40:48;27.42;;;19.67;;
49584;SDS011;35491;49.142;9.210;2022-12-10T20:41:52;28.25;;;19.00;;
49584;SDS011;35491;49.142;9.210;2022-12-10T20:42:57;28.27;;;19.25;;
49584;SDS011;35491;49.142;9.210;2022-12-10T20:43:59;26.05;;;19.15;;
49584;SDS011;35491;49.142;9.210;2022-12-10T20:45:03;24.98;;;18.50;;
49584;SDS011;35491;49.142;9.210;2022-12-10T20:46:11;27.65;;;18.50;;
49584;SDS011;35491;49.142;9.210;2022-12-10T20:47:17;26.33;;;19.52;;
49584;SDS011;35491;49.142;9.210;2022-12-10T20:48:22;26.92;;;18.23;;
49584;SDS011;35491;49.142;9.210;2022-12-10T20:49:26;29.65;;;19.98;;
49584;SDS011;35491;49.142;9.210;2022-12-10T20:50:31;26.33;;;19.02;;
49584;SDS011;35491;49.142;9.210;2022-12-10T20:51:35;24.50;;;18.17;;
49584;SDS011;35491;49.142;9.210;2022-12-10T20:52:37;26.35;;;18.77;;
49584;SDS011;35491;49.142;9.210;2022-12-10T20:53:41;26.20;;;18.50;;
49584;SDS011;35491;49.142;9.210;2022-12-10T20:54:46;26.48;;;18.88;;
49584;SDS011;35491;49.142;9.210;2022-12-10T20:55:50;28.33;;;20.27;;
49584;SDS011;35491;49.142;9.210;2022-12-10T20:56:54;31.58;;;21.50;;
49584;SDS011;35491;49.142;9.210;2022-12-10T20:57:59;30.60;;;21.67;;
49584;SDS011;35491;49.142;9.210;2022-12-10T20:59:04;28.88;;;20.98;;
49584;SDS011;35491;49.142;9.210;2022-12-10T21:00:07;27.98;;;19.83;;
49584;SDS011;35491;49.142;9.210;2022-12-10T21:01:18;28.23;;;20.10;;
49584;SDS011;35491;49.142;9.210;2022-12-10T21:02:23;28.88;;;21.27;;
49584;SDS011;35491;49.142;9.210;2022-12-10T21:03:28;27.70;;;19.27;;
49584;SDS011;35491;49.142;9.210;2022-12-10T21:04:30;28.10;;;20.30;;
49584;SDS011;35491;49.142;9.210;2022-12-10T21:05:34;28.73;;;20.13;;
49584;SDS011;35491;49.142;9.210;2022-12-10T21:06:35;26.13;;;19.27;;
49584;SDS011;35491;49.142;9.210;2022-12-10T21:07:40;27.98;;;19.05;;
49584;SDS011;35491;49.142;9.210;2022-12-10T21:08:45;29.77;;;19.27;;
49584;SDS011;35491;49.142;9.210;2022-12-10T21:09:52;28.50;;;18.63;;
49584;SDS011;35491;49.142;9.210;2022-12-10T21:10:56;27.48;;;19.48;;
49584;SDS011;35491;49.142;9.210;2022-12-10T21:11:58;28.55;;;19.65;;
49584;SDS011;35491;49.142;9.210;2022-12-10T21:13:03;27.95;;;19.77;;
49584;SDS011;35491;49.142;9.210;2022-12-10T21:14:06;28.67;;;20.35;;
49584;SDS011;35491;49.142;9.210;2022-12-10T21:15:10;28.63;;;19.70;;
49584;SDS011;35491;49.142;9.210;2022-12-10T21:16:15;28.75;;;20.45;;
49584;SDS011;35491;49.142;9.210;2022-12-10T21:17:19;30.30;;;20.88;;
49584;SDS011;35491;49.142;9.210;2022-12-10T21:18:24;27.83;;;19.75;;
49584;SDS011;35491;49.142;9.210;2022-12-10T21:19:27;28.17;;;19.55;;
49584;SDS011;35491;49.142;9.210;2022-12-10T21:20:33;30.58;;;21.30;;
49584;SDS011;35491;49.142;9.210;2022-12-10T21:21:34;27.73;;;19.40;;
49584;SDS011;35491;49.142;9.210;2022-12-10T21:22:39;30.80;;;21.48;;
49584;SDS011;35491;49.142;9.210;2022-12-10T21:23:41;28.17;;;19.38;;
49584;SDS011;35491;49.142;9.210;2022-12-10T21:24:45;30.63;;;20.95;;
49584;SDS011;35491;49.142;9.210;2022-12-10T21:25:53;31.45;;;21.73;;
49584;SDS011;35491;49.142;9.210;2022-12-10T21:26:54;31.40;;;21.27;;
49584;SDS011;35491;49.142;9.210;2022-12-10T21:27:58;29.30;;;20.70;;
49584;SDS011;35491;49.142;9.210;2022-12-10T21:29:00;30.55;;;21.20;;
49584;SDS011;35491;49.142;9.210;2022-12-10T21:30:05;32.70;;;22.52;;
49584;SDS011;35491;49.142;9.210;2022-12-10T21:31:12;32.22;;;22.10;;
49584;SDS011;35491;49.142;9.210;2022-12-10T21:32:19;29.67;;;21.15;;
49584;SDS011;35491;49.142;9.210;2022-12-10T21:33:21;34.88;;;21.38;;
49584;SDS011;35491;49.142;9.210;2022-12-10T21:34:27;29.65;;;20.85;;
49584;SDS011;35491;49.142;9.210;2022-12-10T21:35:32;31.63;;;22.08;;
49584;SDS011;35491;49.142;9.210;2022-12-10T21:36:34;33.03;;;23.15;;
49584;SDS011;35491;49.142;9.210;2022-12-10T21:37:39;30.80;;;21.15;;
49584;SDS011;35491;49.142;9.210;2022-12-10T21:38:43;29.30;;;20.48;;
49584;SDS011;35491;49.142;9.210;2022-12-10T21:39:45;31.90;;;22.02;;
49584;SDS011;35491;49.142;9.210;2022-12-10T21:40:49;29.60;;;21.33;;
49584;SDS011;35491;49.142;9.210;2022-12-10T21:41:54;29.38;;;20.42;;
49584;SDS011;35491;49.142;9.210;2022-12-10T21:43:11;31.42;;;20.95;;
49584;SDS011;35491;49.142;9.210;2022-12-10T21:44:21;28.05;;;19.58;;
49584;SDS011;35491;49.142;9.210;2022-12-10T21:45:25;32.67;;;22.13;;
49584;SDS011;35491;49.142;9.210;2022-12-10T21:46:29;29.90;;;21.55;;
49584;SDS011;35491;49.142;9.210;2022-12-10T21:47:34;29.80;;;20.23;;
49584;SDS011;35491;49.142;9.210;2022-12-10T21:48:35;30.52;;;20.40;;
49584;SDS011;35491;49.142;9.210;2022-12-10T21:49:40;28.60;;;20.33;;
49584;SDS011;35491;49.142;9.210;2022-12-10T21:50:41;30.23;;;20.55;;
49584;SDS011;35491;49.142;9.210;2022-12-10T21:51:47;29.70;;;20.63;;
49584;SDS011;35491;49.142;9.210;2022-12-10T21:52:51;29.80;;;20.30;;
49584;SDS011;35491;49.142;9.210;2022-12-10T21:53:53;28.48;;;19.83;;
49584;SDS011;35491;49.142;9.210;2022-12-10T21:55:00;29.08;;;19.55;;
49584;SDS011;35491;49.142;9.210;2022-12-10T21:56:04;29.67;;;19.98;;
49584;SDS011;35491;49.142;9.210;2022-12-10T21:57:12;29.55;;;20.58;;
49584;SDS011;35491;49.142;9.210;2022-12-10T21:58:13;28.23;;;20.15;;
49584;SDS011;35491;49.142;9.210;2022-12-10T21:59:17;29.35;;;20.10;;
49584;SDS011;35491;49.142;9.210;2022-12-10T22:00:21;30.58;;;20.42;;
49584;SDS011;35491;49.142;9.210;2022-12-10T22:01:23;29.98;;;21.63;;
49584;SDS011;35491;49.142;9.210;2022-12-10T22:02:27;30.40;;;20.75;;
49584;SDS011;35491;49.142;9.210;2022-12-10T22:03:29;29.20;;;20.23;;
49584;SDS011;35491;49.142;9.210;2022-12-10T22:04:33;29.63;;;19.63;;
49584;SDS011;35491;49.142;9.210;2022-12-10T22:05:39;28.58;;;20.55;;
49584;SDS011;35491;49.142;9.210;2022-12-10T22:06:45;27.52;;;19.45;;
49584;SDS011;35491;49.142;9.210;2022-12-10T22:07:52;27.58;;;20.10;;
49584;SDS011;35491;49.142;9.210;2022-12-10T22:08:56;26.05;;;18.50;;
49584;SDS011;35491;49.142;9.210;2022-12-10T22:10:00;24.10;;;16.88;;
49584;SDS011;35491;49.142;9.210;2022-12-10T22:11:04;27.10;;;17.92;;
49584;SDS011;35491;49.142;9.210;2022-12-10T22:12:12;27.95;;;18.60;;
49584;SDS011;35491;49.142;9.210;2022-12-10T22:13:13;25.08;;;17.10;;
49584;SDS011;35491;49.142;9.210;2022-12-10T22:14:18;31.75;;;17.50;;
49584;SDS011;35491;49.142;9.210;2022-12-10T22:15:22;25.80;;;18.10;;
49584;SDS011;35491;49.142;9.210;2022-12-10T22:16:26;23.40;;;16.70;;
49584;SDS011;35491;49.142;9.210;2022-12-10T22:17:28;25.02;;;18.17;;
49584;SDS011;35491;49.142;9.210;2022-12-10T22:18:32;25.58;;;18.55;;
49584;SDS011;35491;49.142;9.210;2022-12-10T22:19:36;26.35;;;18.48;;
49584;SDS011;35491;49.142;9.210;2022-12-10T22:20:42;28.75;;;19.33;;
49584;SDS011;35491;49.142;9.210;2022-12-10T22:21:44;26.63;;;18.67;;
49584;SDS011;35491;49.142;9.210;2022-12-10T22:22:49;24.92;;;17.35;;
49584;SDS011;35491;49.142;9.210;2022-12-10T22:23:53;26.33;;;18.30;;
49584;SDS011;35491;49.142;9.210;2022-12-10T22:24:55;25.88;;;18.15;;
49584;SDS011;35491;49.142;9.210;2022-12-10T22:25:59;25.88;;;18.05;;
49584;SDS011;35491;49.142;9.210;2022-12-10T22:27:06;27.35;;;18.27;;
49584;SDS011;35491;49.142;9.210;2022-12-10T22:28:13;26.48;;;19.00;;
49584;SDS011;35491;49.142;9.210;2022-12-10T22:29:18;27.98;;;19.27;;
49584;SDS011;35491;49.142;9.210;2022-12-10T22:30:19;28.25;;;19.25;;
49584;SDS011;35491;49.142;9.210;2022-12-10T22:31:23;28.67;;;19.70;;
49584;SDS011;35491;49.142;9.210;2022-12-10T22:32:28;27.58;;;19.55;;
49584;SDS011;35491;49.142;9.210;2022-12-10T22:33:30;28.15;;;19.95;;
49584;SDS011;35491;49.142;9.210;2022-12-10T22:34:34;28.38;;;19.48;;
49584;SDS011;35491;49.142;9.210;2022-12-10T22:35:36;28.42;;;19.40;;
49584;SDS011;35491;49.142;9.210;2022-12-10T22:36:41;25.42;;;18.30;;
49584;SDS011;35491;49.142;9.210;2022-12-10T22:37:45;25.08;;;17.42;;
49584;SDS011;35491;49.142;9.210;2022-12-10T22:38:51;28.13;;;19.10;;
49584;SDS011;35491;49.142;9.210;2022-12-10T22:39:55;27.35;;;18.85;;
49584;SDS011;35491;49.142;9.210;2022-12-10T22:41:05;28.05;;;19.58;;